createdAt,value
2019-05-18T00:01:24.316Z,11.57
2019-05-18T00:03:53.874Z,10.90
2019-05-18T00:06:22.974Z,10.90
2019-05-18T00:08:52.037Z,11.43
2019-05-18T00:11:21.126Z,10.20
2019-05-18T00:13:50.505Z,10.90
2019-05-18T00:16:19.710Z,12.40
2019-05-18T00:18:48.946Z,12.37
2019-05-18T00:21:19.494Z,11.63
2019-05-18T00:23:48.729Z,12.77
2019-05-18T00:26:17.665Z,12.87
2019-05-18T00:28:46.601Z,12.13
2019-05-18T00:31:15.839Z,12.67
2019-05-18T00:33:44.985Z,12.17
2019-05-18T00:36:14.980Z,12.30
2019-05-18T00:38:44.086Z,12.77
2019-05-18T00:41:13.445Z,13.50
2019-05-18T00:43:42.516Z,12.77
2019-05-18T00:46:11.355Z,12.70
2019-05-18T00:48:40.220Z,12.60
2019-05-18T00:51:10.679Z,12.73
2019-05-18T00:53:40.404Z,13.17
2019-05-18T00:56:09.424Z,11.37
2019-05-18T00:58:38.249Z,12.73
2019-05-18T01:01:08.091Z,12.63
2019-05-18T01:03:37.088Z,12.17
2019-05-18T01:06:06.334Z,12.83
2019-05-18T01:08:35.140Z,11.90
2019-05-18T01:11:04.479Z,12.87
2019-05-18T01:13:33.654Z,12.40
2019-05-18T01:16:03.138Z,12.07
2019-05-18T01:18:32.379Z,12.73
2019-05-18T01:21:01.394Z,12.10
2019-05-18T01:23:30.434Z,11.50
2019-05-18T01:26:00.254Z,12.77
2019-05-18T01:28:29.652Z,13.67
2019-05-18T01:30:58.734Z,13.00
2019-05-18T01:33:27.621Z,13.33
2019-05-18T01:35:56.729Z,12.90
2019-05-18T01:38:26.050Z,12.93
2019-05-18T01:40:54.973Z,13.37
2019-05-18T01:43:23.865Z,12.50
2019-05-18T01:45:52.990Z,12.80
2019-05-18T01:48:21.900Z,12.60
2019-05-18T01:50:50.827Z,12.90
2019-05-18T01:53:19.924Z,13.37
2019-05-18T01:55:49.054Z,13.33
2019-05-18T01:58:18.022Z,13.60
2019-05-18T02:00:47.285Z,13.17
2019-05-18T02:03:17.056Z,14.03
2019-05-18T02:05:46.069Z,13.07
2019-05-18T02:08:15.009Z,12.50
2019-05-18T02:10:44.000Z,13.87
2019-05-18T02:13:13.074Z,13.07
2019-05-18T02:15:42.010Z,12.97
2019-05-18T02:18:11.126Z,12.43
2019-05-18T02:20:41.958Z,12.50
2019-05-18T02:23:10.976Z,13.07
2019-05-18T02:25:39.944Z,13.57
2019-05-18T02:28:09.149Z,13.60
2019-05-18T02:30:38.119Z,14.37
2019-05-18T02:33:07.135Z,14.17
2019-05-18T02:35:36.255Z,14.37
2019-05-18T02:38:19.014Z,16.20
2019-05-18T02:40:48.565Z,15.30
2019-05-18T02:43:17.457Z,15.73
2019-05-18T02:45:47.138Z,15.43
2019-05-18T02:48:16.269Z,15.77
2019-05-18T02:50:45.346Z,15.73
2019-05-18T02:53:14.597Z,15.40
2019-05-18T02:55:43.595Z,15.50
2019-05-18T02:58:12.735Z,15.40
2019-05-18T03:00:41.616Z,14.97
2019-05-18T03:03:10.642Z,13.97
2019-05-18T03:05:39.951Z,13.77
2019-05-18T03:08:09.214Z,14.30
2019-05-18T03:10:38.095Z,14.70
2019-05-18T03:13:07.147Z,14.43
2019-05-18T03:15:36.566Z,14.30
2019-05-18T03:18:05.662Z,14.80
2019-05-18T03:20:34.531Z,14.23
2019-05-18T03:23:03.602Z,14.43
2019-05-18T03:25:32.794Z,13.90
2019-05-18T03:28:03.449Z,14.83
2019-05-18T03:30:32.753Z,15.87
2019-05-18T03:33:01.869Z,15.43
2019-05-18T03:35:30.797Z,16.47
2019-05-18T03:37:59.666Z,16.40
2019-05-18T03:40:29.116Z,16.07
2019-05-18T03:42:58.065Z,16.30
2019-05-18T03:45:26.972Z,16.37
2019-05-18T03:47:56.091Z,16.03
2019-05-18T03:50:25.207Z,16.07
2019-05-18T03:52:54.667Z,15.20
2019-05-18T03:55:23.683Z,16.13
2019-05-18T03:57:52.602Z,15.50
2019-05-18T04:00:25.554Z,14.87
2019-05-18T04:02:54.500Z,14.57
2019-05-18T04:05:23.402Z,13.87
2019-05-18T04:07:52.391Z,12.63
2019-05-18T04:10:27.141Z,13.23
2019-05-18T04:12:56.102Z,13.97
2019-05-18T04:15:25.174Z,12.90
2019-05-18T04:17:54.091Z,13.53
2019-05-18T04:20:23.333Z,12.87
2019-05-18T04:22:52.607Z,12.00
2019-05-18T04:25:21.696Z,13.13
2019-05-18T04:27:52.183Z,13.40
2019-05-18T04:30:21.488Z,12.77
2019-05-18T04:32:50.443Z,14.40
2019-05-18T04:35:19.453Z,15.13
2019-05-18T04:37:48.342Z,16.43
2019-05-18T04:40:17.532Z,13.80
2019-05-18T04:42:46.664Z,13.77
2019-05-18T04:45:16.556Z,13.97
2019-05-18T04:47:48.441Z,14.00
2019-05-18T04:50:16.861Z,13.23
2019-05-18T04:52:45.882Z,14.73
2019-05-18T04:55:15.152Z,14.10
2019-05-18T04:57:44.218Z,12.97
2019-05-18T05:00:13.170Z,13.07
2019-05-18T05:02:42.065Z,13.63
2019-05-18T05:05:11.389Z,13.47
2019-05-18T05:07:40.284Z,14.13
2019-05-18T05:10:09.395Z,13.50
2019-05-18T05:12:38.563Z,13.30
2019-05-18T05:15:08.464Z,14.40
2019-05-18T05:17:37.307Z,14.43
2019-05-18T05:20:18.728Z,13.40
2019-05-18T05:22:37.915Z,12.73
2019-05-18T05:25:06.991Z,13.43
2019-05-18T05:27:35.941Z,13.53
2019-05-18T05:30:07.931Z,12.93
2019-05-18T05:32:36.771Z,12.40
2019-05-18T05:35:07.424Z,13.27
2019-05-18T05:37:36.270Z,14.10
2019-05-18T05:40:08.252Z,14.23
2019-05-18T05:42:37.549Z,14.17
2019-05-18T05:45:07.445Z,14.07
2019-05-18T05:47:36.367Z,13.27
2019-05-18T05:50:09.594Z,14.13
2019-05-18T05:52:38.887Z,13.37
2019-05-18T05:55:08.689Z,13.17
2019-05-18T05:57:38.181Z,13.20
2019-05-18T06:00:08.513Z,13.07
2019-05-18T06:02:38.113Z,13.33
2019-05-18T06:05:08.367Z,14.27
2019-05-18T06:07:37.298Z,14.17
2019-05-18T06:10:07.244Z,13.47
2019-05-18T06:12:36.460Z,13.03
2019-05-18T06:15:08.102Z,12.57
2019-05-18T06:17:37.150Z,13.63
2019-05-18T06:20:07.647Z,13.90
2019-05-18T06:22:36.888Z,13.30
2019-05-18T06:25:07.724Z,12.90
2019-05-18T06:27:37.223Z,11.80
2019-05-18T06:30:06.900Z,11.77
2019-05-18T06:32:36.104Z,11.57
2019-05-18T06:35:06.359Z,12.30
2019-05-18T06:37:35.250Z,11.83
2019-05-18T06:40:05.640Z,12.53
2019-05-18T06:42:34.717Z,12.03
2019-05-18T06:45:05.602Z,12.10
2019-05-18T06:47:34.993Z,13.00
2019-05-18T06:50:06.077Z,12.27
2019-05-18T06:52:35.358Z,12.33
2019-05-18T06:55:07.811Z,11.37
2019-05-18T06:57:37.522Z,12.70
2019-05-18T07:00:12.259Z,12.73
2019-05-18T07:02:41.543Z,12.33
2019-05-18T07:05:11.273Z,12.43
2019-05-18T07:07:40.336Z,12.13
2019-05-18T07:10:10.085Z,12.47
2019-05-18T07:12:39.155Z,12.23
2019-05-18T07:15:08.418Z,12.33
2019-05-18T07:17:37.799Z,11.83
2019-05-18T07:20:06.985Z,12.57
2019-05-18T07:22:35.996Z,12.03
2019-05-18T07:25:09.621Z,12.33
2019-05-18T07:27:38.824Z,12.17
2019-05-18T07:30:09.876Z,12.97
2019-05-18T07:32:39.230Z,12.73
2019-05-18T07:35:08.523Z,12.50
2019-05-18T07:37:37.548Z,12.93
2019-05-18T07:40:09.318Z,13.60
2019-05-18T07:42:38.288Z,12.80
2019-05-18T07:45:09.055Z,12.10
2019-05-18T07:47:38.416Z,13.07
2019-05-18T07:50:08.866Z,13.90
2019-05-18T07:52:37.803Z,13.07
2019-05-18T07:55:10.517Z,14.30
2019-05-18T07:57:40.088Z,13.87
2019-05-18T08:00:09.723Z,13.27
2019-05-18T08:02:38.601Z,13.43
2019-05-18T08:05:09.146Z,14.67
2019-05-18T08:07:38.165Z,14.97
2019-05-18T08:10:08.355Z,13.77
2019-05-18T08:12:37.453Z,14.77
2019-05-18T08:15:11.931Z,14.53
2019-05-18T08:17:41.058Z,14.67
2019-05-18T08:20:10.410Z,14.03
2019-05-18T08:22:39.256Z,12.87
2019-05-18T08:25:08.463Z,14.20
2019-05-18T08:27:38.195Z,13.90
2019-05-18T08:30:07.616Z,13.33
2019-05-18T08:32:36.571Z,13.97
2019-05-18T08:35:06.766Z,13.67
2019-05-18T08:37:35.788Z,14.00
2019-05-18T08:40:10.581Z,15.83
2019-05-18T08:42:40.602Z,14.90
2019-05-18T08:45:11.947Z,15.27
2019-05-18T08:47:42.783Z,14.97
2019-05-18T08:50:12.102Z,15.07
2019-05-18T08:52:41.106Z,14.73
2019-05-18T08:55:10.975Z,15.67
2019-05-18T08:57:40.880Z,15.07
2019-05-18T09:00:13.033Z,15.23
2019-05-18T09:02:42.553Z,14.47
2019-05-18T09:05:11.594Z,12.87
2019-05-18T09:07:40.447Z,12.00
2019-05-18T09:10:10.213Z,11.67
2019-05-18T09:12:39.947Z,10.80
2019-05-18T09:15:11.230Z,10.50
2019-05-18T09:17:41.036Z,10.90
2019-05-18T09:20:12.296Z,11.10
2019-05-18T09:22:41.401Z,11.17
2019-05-18T09:25:11.291Z,12.40
2019-05-18T09:27:40.254Z,12.20
2019-05-18T09:30:09.649Z,12.60
2019-05-18T09:32:38.741Z,12.43
2019-05-18T09:35:10.332Z,13.83
2019-05-18T09:37:39.196Z,13.07
2019-05-18T09:40:09.477Z,13.67
2019-05-18T09:42:38.446Z,12.67
2019-05-18T09:45:09.054Z,13.80
2019-05-18T09:47:37.951Z,13.60
2019-05-18T09:50:07.828Z,14.07
2019-05-18T09:52:44.981Z,14.63
2019-05-18T09:55:10.063Z,14.67
2019-05-18T09:57:39.782Z,14.93
2019-05-18T10:00:13.280Z,14.97
2019-05-18T10:02:42.819Z,14.27
2019-05-18T10:05:12.633Z,14.70
2019-05-18T10:07:41.703Z,15.23
2019-05-18T10:10:11.764Z,16.40
2019-05-18T10:12:40.907Z,15.70
2019-05-18T10:15:10.652Z,16.70
2019-05-18T10:17:39.778Z,16.10
2019-05-18T10:20:09.459Z,16.37
2019-05-18T10:22:53.389Z,17.80
2019-05-18T10:25:12.284Z,17.30
2019-05-18T10:27:41.895Z,18.87
2019-05-18T10:30:11.381Z,18.83
2019-05-18T10:32:40.873Z,19.63
2019-05-18T10:35:10.102Z,18.17
2019-05-18T10:37:39.179Z,19.63
2019-05-18T10:40:09.829Z,20.07
2019-05-18T10:42:39.285Z,19.10
2019-05-18T10:45:09.752Z,18.73
2019-05-18T10:47:38.809Z,19.97
2019-05-18T10:50:08.975Z,20.30
2019-05-18T10:52:38.324Z,20.80
2019-05-18T10:55:10.091Z,21.67
2019-05-18T10:57:39.329Z,20.87
2019-05-18T11:00:09.680Z,20.53
2019-05-18T11:02:38.708Z,21.73
2019-05-18T11:05:09.670Z,20.87
2019-05-18T11:07:38.751Z,21.83
2019-05-18T11:10:09.619Z,21.77
2019-05-18T11:12:38.653Z,21.10
2019-05-18T11:15:08.605Z,21.83
2019-05-18T11:17:37.581Z,21.33
2019-05-18T11:20:11.877Z,22.13
2019-05-18T11:22:40.896Z,21.70
2019-05-18T11:25:11.262Z,21.23
2019-05-18T11:27:40.194Z,21.27
2019-05-18T11:30:10.541Z,22.20
2019-05-18T11:32:39.638Z,21.83
2019-05-18T11:35:09.717Z,21.17
2019-05-18T11:37:38.822Z,21.77
2019-05-18T11:40:10.524Z,21.70
2019-05-18T11:42:39.640Z,21.13
2019-05-18T11:45:12.137Z,21.60
2019-05-18T11:47:42.229Z,21.13
2019-05-18T11:50:12.749Z,21.57
2019-05-18T11:52:41.895Z,22.13
2019-05-18T11:55:11.998Z,20.63
2019-05-18T11:57:41.298Z,23.10
2019-05-18T12:00:17.717Z,22.90
2019-05-18T12:02:47.323Z,22.80
2019-05-18T12:05:17.572Z,22.07
2019-05-18T12:07:47.011Z,22.47
2019-05-18T12:10:20.974Z,23.27
2019-05-18T12:12:50.330Z,22.57
2019-05-18T12:15:21.417Z,23.07
2019-05-18T12:17:50.495Z,24.43
2019-05-18T12:20:19.571Z,22.60
2019-05-18T12:22:48.671Z,22.47
2019-05-18T12:25:17.815Z,23.13
2019-05-18T12:27:47.583Z,23.30
2019-05-18T12:30:17.882Z,22.63
2019-05-18T12:32:47.227Z,23.67
2019-05-18T12:35:18.367Z,23.83
2019-05-18T12:37:48.654Z,22.17
2019-05-18T12:40:19.772Z,25.00
2019-05-18T12:42:48.802Z,23.53
2019-05-18T12:45:19.236Z,23.87
2019-05-18T12:47:48.268Z,23.63
2019-05-18T12:50:18.507Z,22.97
2019-05-18T12:52:47.620Z,23.83
2019-05-18T12:55:17.764Z,24.40
2019-05-18T12:57:47.475Z,22.33
2019-05-18T13:00:18.463Z,23.47
2019-05-18T13:02:48.551Z,24.70
2019-05-18T13:05:19.098Z,22.63
2019-05-18T13:08:07.669Z,23.63
2019-05-18T13:10:52.136Z,23.57
2019-05-18T13:13:21.858Z,24.70
2019-05-18T13:15:50.746Z,22.27
2019-05-18T13:18:19.592Z,23.70
2019-05-18T13:20:50.106Z,23.77
2019-05-18T13:23:19.201Z,23.97
2019-05-18T13:25:50.311Z,24.00
2019-05-18T13:28:20.091Z,23.10
2019-05-18T13:30:49.561Z,21.97
2019-05-18T13:33:18.604Z,22.53
2019-05-18T13:35:47.802Z,22.60
2019-05-18T13:38:16.870Z,22.73
2019-05-18T13:40:49.555Z,22.57
2019-05-18T13:43:20.580Z,23.50
2019-05-18T13:45:51.410Z,25.07
2019-05-18T13:48:20.740Z,24.60
2019-05-18T13:50:49.866Z,23.33
2019-05-18T13:53:18.763Z,22.97
2019-05-18T13:55:53.539Z,23.00
2019-05-18T13:58:22.974Z,21.73
2019-05-18T14:00:52.972Z,21.40
2019-05-18T14:03:22.078Z,21.07
2019-05-18T14:05:51.311Z,22.37
2019-05-18T14:08:20.212Z,22.90
2019-05-18T14:10:51.031Z,21.73
2019-05-18T14:13:26.343Z,22.30
2019-05-18T14:15:55.462Z,23.33
2019-05-18T14:18:24.767Z,22.77
2019-05-18T14:20:53.775Z,23.37
2019-05-18T14:23:24.420Z,22.07
2019-05-18T14:25:57.392Z,23.30
2019-05-18T14:28:30.517Z,22.67
2019-05-18T14:31:00.323Z,22.13
2019-05-18T14:33:29.227Z,23.47
2019-05-18T14:35:58.548Z,22.00
2019-05-18T14:38:31.839Z,21.03
2019-05-18T14:41:03.702Z,20.20
2019-05-18T14:43:54.628Z,22.20
2019-05-18T14:46:27.667Z,22.30
2019-05-18T14:49:01.752Z,22.40
2019-05-18T14:51:34.345Z,21.63
2019-05-18T14:54:03.654Z,20.03
2019-05-18T14:56:35.722Z,19.97
2019-05-18T14:59:07.813Z,19.47
2019-05-18T15:01:38.187Z,19.93
2019-05-18T15:04:10.040Z,19.70
2019-05-18T15:06:42.234Z,20.63
2019-05-18T15:09:13.883Z,20.33
2019-05-18T15:11:43.644Z,21.07
2019-05-18T15:14:14.360Z,19.60
2019-05-18T15:16:43.461Z,20.77
2019-05-18T15:19:14.928Z,18.47
2019-05-18T15:21:48.476Z,18.67
2019-05-18T15:24:17.637Z,18.53
2019-05-18T15:26:46.669Z,22.63
2019-05-18T15:29:15.629Z,21.17
2019-05-18T15:31:46.994Z,19.37
2019-05-18T15:34:16.080Z,20.40
2019-05-18T15:36:47.823Z,20.57
2019-05-18T15:39:16.919Z,22.27
2019-05-18T15:41:46.178Z,20.40
2019-05-18T15:44:14.985Z,19.83
2019-05-18T15:46:49.560Z,17.27
2019-05-18T15:49:19.950Z,18.37
2019-05-18T15:51:49.022Z,18.70
2019-05-18T15:54:18.484Z,17.63
2019-05-18T15:56:49.420Z,19.00
2019-05-18T15:59:18.969Z,19.70
2019-05-18T16:01:52.281Z,19.23
2019-05-18T16:04:25.357Z,19.07
2019-05-18T16:06:56.593Z,19.63
2019-05-18T16:09:30.433Z,20.57
2019-05-18T16:12:01.221Z,18.77
2019-05-18T16:14:30.660Z,19.37
2019-05-18T16:16:59.774Z,18.87
2019-05-18T16:19:29.255Z,19.10
2019-05-18T16:21:58.332Z,18.93
2019-05-18T16:24:27.587Z,18.80
2019-05-18T16:26:56.521Z,17.87
2019-05-18T16:29:25.460Z,18.10
2019-05-18T16:31:54.380Z,19.73
2019-05-18T16:34:24.131Z,18.63
2019-05-18T16:36:53.177Z,18.70
2019-05-18T16:39:22.185Z,18.67
2019-05-18T16:41:56.150Z,19.77
2019-05-18T16:44:30.218Z,19.53
2019-05-18T16:46:59.116Z,19.10
2019-05-18T16:49:34.978Z,19.13
2019-05-18T16:52:04.558Z,20.80
2019-05-18T16:54:34.172Z,19.57
2019-05-18T16:57:14.173Z,19.97
2019-05-18T16:59:47.213Z,20.77
2019-05-18T17:02:31.116Z,20.13
2019-05-18T17:04:51.568Z,20.27
2019-05-18T17:07:38.466Z,19.67
2019-05-18T17:10:14.979Z,21.03
2019-05-18T17:12:46.790Z,19.70
2019-05-18T17:15:16.973Z,20.03
2019-05-18T17:17:46.073Z,19.87
2019-05-18T17:20:18.497Z,21.23
2019-05-18T17:22:50.601Z,20.13
2019-05-18T17:25:20.071Z,19.67
2019-05-18T17:27:51.702Z,19.13
2019-05-18T17:30:21.514Z,20.00
2019-05-18T17:32:54.811Z,20.47
2019-05-18T17:35:26.668Z,21.93
2019-05-18T17:37:57.726Z,21.10
2019-05-18T17:40:27.805Z,20.60
2019-05-18T17:43:01.386Z,22.40
2019-05-18T17:45:31.423Z,22.00
2019-05-18T17:48:14.338Z,21.77
2019-05-18T17:50:43.935Z,21.33
2019-05-18T17:53:13.585Z,21.53
2019-05-18T17:55:43.965Z,21.70
2019-05-18T17:58:18.115Z,21.00
2019-05-18T18:00:47.319Z,22.53
2019-05-18T18:03:17.411Z,21.60
2019-05-18T18:05:49.068Z,23.50
2019-05-18T18:08:19.493Z,22.87
2019-05-18T18:10:48.793Z,22.90
2019-05-18T18:13:22.294Z,23.90
2019-05-18T18:15:51.911Z,22.67
2019-05-18T18:18:23.735Z,23.33
2019-05-18T18:20:55.623Z,23.57
2019-05-18T18:23:28.116Z,23.70
2019-05-18T18:25:58.580Z,22.70
2019-05-18T18:28:30.798Z,25.03
2019-05-18T18:31:05.934Z,22.83
2019-05-18T18:33:34.980Z,23.07
2019-05-18T18:36:05.063Z,23.67
2019-05-18T18:38:37.840Z,24.30
2019-05-18T18:41:09.135Z,23.83
2019-05-18T18:43:38.766Z,24.47
2019-05-18T18:46:10.042Z,24.37
2019-05-18T18:48:39.951Z,25.23
2019-05-18T18:51:09.085Z,24.23
2019-05-18T18:53:40.003Z,24.93
2019-05-18T18:56:10.708Z,24.90
2019-05-18T18:58:42.201Z,23.03
2019-05-18T19:01:17.062Z,23.30
2019-05-18T19:03:48.935Z,25.00
2019-05-18T19:06:23.476Z,25.17
2019-05-18T19:08:55.079Z,25.10
2019-05-18T19:11:24.516Z,24.17
2019-05-18T19:13:53.463Z,25.23
2019-05-18T19:16:25.413Z,26.20
2019-05-18T19:18:55.637Z,26.23
2019-05-18T19:21:26.974Z,25.73
2019-05-18T19:23:56.100Z,24.37
2019-05-18T19:26:25.545Z,25.03
2019-05-18T19:28:54.974Z,26.17
2019-05-18T19:31:24.290Z,26.00
2019-05-18T19:33:54.279Z,26.50
2019-05-18T19:36:26.835Z,27.27
2019-05-18T19:38:58.260Z,25.60
2019-05-18T19:41:27.289Z,26.37
2019-05-18T19:44:04.911Z,26.13
2019-05-18T19:46:34.888Z,26.17
2019-05-18T19:49:03.804Z,26.67
2019-05-18T19:51:32.746Z,27.13
2019-05-18T19:54:04.079Z,27.97
2019-05-18T19:56:39.620Z,27.17
2019-05-18T19:59:03.942Z,27.93
2019-05-18T20:01:32.837Z,27.63
2019-05-18T20:04:02.506Z,25.77
2019-05-18T20:06:31.361Z,28.27
2019-05-18T20:09:01.067Z,26.83
2019-05-18T20:11:32.432Z,28.70
2019-05-18T20:14:02.259Z,27.40
2019-05-18T20:16:31.572Z,28.20
2019-05-18T20:19:00.698Z,28.30
2019-05-18T20:21:30.852Z,28.53
2019-05-18T20:24:01.785Z,29.13
2019-05-18T20:26:34.505Z,27.97
2019-05-18T20:29:03.627Z,29.83
2019-05-18T20:31:32.514Z,29.13
2019-05-18T20:34:02.116Z,29.53
2019-05-18T20:36:30.988Z,29.63
2019-05-18T20:39:00.002Z,28.00
2019-05-18T20:41:31.463Z,30.47
2019-05-18T20:44:01.235Z,29.07
2019-05-18T20:46:30.851Z,28.37
2019-05-18T20:49:00.538Z,29.00
2019-05-18T20:51:30.069Z,30.00
2019-05-18T20:54:00.484Z,30.53
2019-05-18T20:56:29.555Z,29.70
2019-05-18T20:58:58.724Z,28.93
2019-05-18T21:01:34.318Z,30.73
2019-05-18T21:04:06.102Z,28.77
2019-05-18T21:06:36.431Z,29.60
2019-05-18T21:09:07.691Z,30.53
2019-05-18T21:11:36.905Z,31.67
2019-05-18T21:14:05.837Z,30.10
2019-05-18T21:16:37.385Z,30.97
2019-05-18T21:19:08.235Z,31.87
2019-05-18T21:21:45.541Z,30.77
2019-05-18T21:24:16.329Z,30.63
2019-05-18T21:26:45.797Z,32.80
2019-05-18T21:29:15.119Z,31.13
2019-05-18T21:31:43.938Z,32.30
2019-05-18T21:34:14.378Z,33.00
2019-05-18T21:36:43.248Z,31.27
2019-05-18T21:39:12.828Z,30.13
2019-05-18T21:41:42.265Z,31.33
2019-05-18T21:44:12.344Z,31.13
2019-05-18T21:46:43.758Z,31.27
2019-05-18T21:49:12.805Z,35.87
2019-05-18T21:51:41.648Z,32.53
2019-05-18T21:54:10.709Z,31.50
2019-05-18T21:56:40.113Z,31.13
2019-05-18T21:59:12.158Z,29.77
2019-05-18T22:01:39.496Z,32.77
2019-05-18T22:04:09.927Z,31.13
2019-05-18T22:06:38.989Z,31.33
2019-05-18T22:09:08.390Z,31.40
2019-05-18T22:11:37.284Z,31.60
2019-05-18T22:14:06.428Z,31.73
2019-05-18T22:16:36.420Z,32.27
2019-05-18T22:19:05.808Z,31.17
2019-05-18T22:21:34.690Z,31.33
2019-05-18T22:24:03.633Z,31.83
2019-05-18T22:26:33.482Z,30.47
2019-05-18T22:29:02.572Z,31.50
2019-05-18T22:31:32.242Z,33.47
2019-05-18T22:34:05.307Z,32.93
2019-05-18T22:36:35.932Z,32.20
2019-05-18T22:39:08.171Z,33.20
2019-05-18T22:41:39.140Z,33.17
2019-05-18T22:44:09.250Z,33.80
2019-05-18T22:46:38.129Z,32.10
2019-05-18T22:49:07.299Z,30.60
2019-05-18T22:51:36.415Z,31.80
2019-05-18T22:54:05.370Z,31.17
2019-05-18T22:56:35.783Z,31.87
2019-05-18T22:59:05.182Z,33.17
2019-05-18T23:01:34.217Z,32.53
2019-05-18T23:04:05.249Z,32.17
2019-05-18T23:06:35.614Z,32.80
2019-05-18T23:09:05.829Z,32.07
2019-05-18T23:11:35.189Z,32.67
2019-05-18T23:14:05.090Z,32.03
2019-05-18T23:16:36.759Z,32.63
2019-05-18T23:19:05.741Z,31.63
2019-05-18T23:21:34.687Z,33.70
2019-05-18T23:24:03.754Z,31.40
2019-05-18T23:26:32.890Z,30.20
2019-05-18T23:29:02.936Z,31.47
2019-05-18T23:31:34.017Z,32.70
2019-05-18T23:34:04.438Z,31.93
2019-05-18T23:36:33.636Z,31.57
2019-05-18T23:39:02.969Z,30.33
2019-05-18T23:41:31.868Z,31.97
2019-05-18T23:44:03.068Z,31.20
2019-05-18T23:46:31.730Z,30.33
2019-05-18T23:49:10.382Z,31.90
2019-05-18T23:51:34.658Z,33.07
2019-05-18T23:54:03.728Z,31.73
2019-05-18T23:56:34.106Z,31.87
2019-05-18T23:59:05.246Z,32.37
